Time;durP1;ratioP1;P1;durP2;ratioP2;P2;SDS_P1;SDS_P2;PMS_P1;PMS_P2;Temp;Humidity;BMP_temperature;BMP_pressure;BME280_temperature;BME280_humidity;BME280_pressure;Samples;Min_cycle;Max_cycle;Signal;HPM_P1;HPM_P2
2021/09/28 00:01:38;;;;;;;2.00;1.77;;;11.40;99.90;;;;;;5032976;28;20219;-70
2021/09/28 00:04:05;;;;;;;2.47;2.27;;;11.30;99.90;;;;;;5031410;28;20206;-69
2021/09/28 00:06:33;;;;;;;3.83;2.30;;;11.40;99.90;;;;;;5033227;28;20297;-70
2021/09/28 00:09:00;;;;;;;4.40;2.43;;;11.30;99.90;;;;;;5033617;28;20644;-68
2021/09/28 00:11:27;;;;;;;3.13;2.00;;;11.30;99.90;;;;;;5033313;28;20222;-68
2021/09/28 00:13:54;;;;;;;3.53;2.20;;;11.30;99.90;;;;;;5034486;28;20265;-68
2021/09/28 00:16:21;;;;;;;2.33;2.13;;;11.30;99.90;;;;;;5033935;28;20202;-69
2021/09/28 00:18:48;;;;;;;2.63;1.80;;;11.20;99.90;;;;;;5034555;28;20309;-70
2021/09/28 00:21:15;;;;;;;3.23;1.93;;;11.20;99.90;;;;;;5033898;28;20206;-70
2021/09/28 00:23:43;;;;;;;2.57;2.20;;;11.20;99.90;;;;;;5033162;28;20206;-69
2021/09/28 00:26:10;;;;;;;3.33;2.20;;;11.20;99.90;;;;;;5033937;28;20214;-68
2021/09/28 00:28:37;;;;;;;2.43;2.10;;;11.20;99.90;;;;;;5033862;28;20329;-69
2021/09/28 00:31:04;;;;;;;3.37;2.47;;;11.20;99.90;;;;;;5033744;28;20211;-69
2021/09/28 00:33:31;;;;;;;3.37;1.97;;;11.10;99.90;;;;;;5034098;28;20209;-69
2021/09/28 00:35:58;;;;;;;2.37;2.17;;;11.10;99.90;;;;;;5034075;28;20612;-68
2021/09/28 00:38:25;;;;;;;4.23;2.07;;;11.00;99.90;;;;;;5033923;28;20230;-69
2021/09/28 00:40:53;;;;;;;1.80;1.50;;;11.00;99.90;;;;;;5034168;28;20214;-68
2021/09/28 00:43:20;;;;;;;2.10;1.90;;;11.00;99.90;;;;;;5033525;28;20210;-70
2021/09/28 00:45:47;;;;;;;2.10;1.73;;;11.00;99.90;;;;;;5034313;28;20639;-68
2021/09/28 00:48:14;;;;;;;1.87;1.57;;;10.90;99.90;;;;;;5034019;28;20305;-69
2021/09/28 00:50:41;;;;;;;3.80;2.33;;;10.90;99.90;;;;;;5034225;28;20241;-68
2021/09/28 00:53:09;;;;;;;2.63;2.20;;;10.90;99.90;;;;;;5032446;28;20202;-69
2021/09/28 00:55:36;;;;;;;2.30;2.10;;;10.90;99.90;;;;;;5033581;28;20572;-68
2021/09/28 00:58:08;;;;;;;1.93;1.83;;;10.90;99.90;;;;;;5033061;28;20297;-69
2021/09/28 01:00:36;;;;;;;1.90;1.80;;;10.90;99.90;;;;;;5033462;28;20682;-69
2021/09/28 01:03:04;;;;;;;2.10;1.90;;;10.90;99.90;;;;;;5019719;28;20562;-69
2021/09/28 01:05:31;;;;;;;2.10;1.77;;;10.80;99.90;;;;;;5032540;28;20253;-68
2021/09/28 01:07:58;;;;;;;1.83;1.73;;;10.80;99.90;;;;;;5033469;28;20209;-69
2021/09/28 01:10:24;;;;;;;2.13;1.90;;;10.90;99.90;;;;;;5032934;28;20220;-68
2021/09/28 01:12:51;;;;;;;1.90;1.80;;;10.80;99.90;;;;;;5032853;28;20217;-69
2021/09/28 01:15:20;;;;;;;2.10;1.90;;;10.80;99.90;;;;;;5033559;28;20207;-69
2021/09/28 01:17:47;;;;;;;1.90;1.80;;;10.70;99.90;;;;;;5033025;28;20685;-69
2021/09/28 01:20:13;;;;;;;4.93;2.30;;;10.70;99.90;;;;;;5031881;28;20551;-69
2021/09/28 01:22:42;;;;;;;2.37;1.83;;;10.70;99.90;;;;;;5033536;28;20297;-69
2021/09/28 01:25:09;;;;;;;1.80;1.70;;;10.70;99.90;;;;;;5032168;28;20213;-70
2021/09/28 01:27:37;;;;;;;2.90;2.40;;;10.60;99.90;;;;;;5029733;28;20210;-70
2021/09/28 01:30:06;;;;;;;2.50;1.90;;;10.60;99.90;;;;;;5031565;28;20574;-70
2021/09/28 01:32:33;;;;;;;1.80;1.70;;;10.60;99.90;;;;;;5032621;28;20206;-74
2021/09/28 01:35:01;;;;;;;2.10;2.00;;;10.60;99.90;;;;;;5030785;28;20210;-70
2021/09/28 01:37:28;;;;;;;2.40;2.03;;;10.50;99.90;;;;;;5031271;28;20591;-69
2021/09/28 01:39:56;;;;;;;2.07;1.80;;;10.50;99.90;;;;;;5030573;28;20218;-69
2021/09/28 01:42:23;;;;;;;2.00;1.80;;;10.40;99.90;;;;;;5026095;28;20585;-69
2021/09/28 01:44:50;;;;;;;2.30;2.07;;;10.30;99.90;;;;;;5031608;28;20210;-68
2021/09/28 01:47:17;;;;;;;4.10;2.10;;;10.30;99.90;;;;;;5031990;28;20217;-68
2021/09/28 01:49:44;;;;;;;2.03;1.83;;;10.30;99.90;;;;;;5030993;28;20211;-68
2021/09/28 01:52:11;;;;;;;2.33;2.07;;;10.20;99.90;;;;;;5032093;28;20682;-70
2021/09/28 01:54:37;;;;;;;2.13;1.93;;;10.20;99.90;;;;;;5031320;28;20570;-69
2021/09/28 01:57:06;;;;;;;1.80;1.70;;;10.10;99.90;;;;;;5031181;28;20217;-69
2021/09/28 01:59:33;;;;;;;2.00;1.80;;;10.10;99.90;;;;;;5030251;28;20218;-68
2021/09/28 02:02:00;;;;;;;3.30;2.20;;;10.10;99.90;;;;;;5031238;28;20306;-69
2021/09/28 02:04:27;;;;;;;2.13;1.90;;;10.10;99.90;;;;;;5030992;28;21101;-69
2021/09/28 02:06:54;;;;;;;2.10;1.90;;;10.00;99.90;;;;;;5031324;28;20309;-69
2021/09/28 02:09:21;;;;;;;2.00;1.80;;;10.00;99.90;;;;;;5032599;28;20207;-68
2021/09/28 02:11:48;;;;;;;1.80;1.70;;;10.00;99.90;;;;;;5031158;28;20253;-70
2021/09/28 02:14:17;;;;;;;2.70;2.27;;;10.00;99.90;;;;;;5030396;28;20211;-69
2021/09/28 02:16:45;;;;;;;2.63;2.43;;;9.90;99.90;;;;;;5028052;28;20234;-68
2021/09/28 02:19:12;;;;;;;2.43;2.00;;;9.90;99.90;;;;;;5029823;28;20226;-69
2021/09/28 02:21:38;;;;;;;4.33;2.63;;;9.90;99.90;;;;;;5023340;28;20210;-69
2021/09/28 02:24:06;;;;;;;2.77;2.47;;;9.90;99.90;;;;;;5029309;28;20230;-69
2021/09/28 02:26:33;;;;;;;3.40;2.63;;;9.90;99.90;;;;;;5030341;28;20213;-70
2021/09/28 02:29:00;;;;;;;3.43;2.70;;;9.90;99.90;;;;;;5029439;28;20238;-69
2021/09/28 02:31:28;;;;;;;3.33;2.80;;;9.90;99.90;;;;;;5029511;28;20206;-69
2021/09/28 02:33:55;;;;;;;4.30;2.97;;;9.90;99.90;;;;;;5026709;28;20663;-70
2021/09/28 02:36:22;;;;;;;3.37;2.40;;;9.90;99.90;;;;;;5029827;28;20230;-69
2021/09/28 02:38:49;;;;;;;3.20;2.30;;;9.90;99.90;;;;;;5031229;28;20214;-69
2021/09/28 02:41:16;;;;;;;2.70;2.50;;;9.90;99.90;;;;;;5030637;28;20215;-70
2021/09/28 02:43:43;;;;;;;3.50;2.50;;;9.80;99.90;;;;;;5030975;28;20211;-69
2021/09/28 02:46:10;;;;;;;4.70;3.53;;;9.80;99.90;;;;;;5030186;28;20298;-70
2021/09/28 02:48:38;;;;;;;4.80;2.97;;;9.80;99.90;;;;;;5031851;28;20736;-69
2021/09/28 02:51:05;;;;;;;4.97;3.20;;;9.70;99.90;;;;;;5026616;28;20211;-69
2021/09/28 02:53:32;;;;;;;4.47;3.20;;;9.70;99.90;;;;;;5029943;28;20203;-68
2021/09/28 02:55:59;;;;;;;3.87;2.80;;;9.70;99.90;;;;;;5027752;28;20209;-69
2021/09/28 02:58:26;;;;;;;5.03;3.30;;;9.80;99.90;;;;;;5030070;28;20555;-69
2021/09/28 03:00:53;;;;;;;4.23;2.90;;;9.70;99.90;;;;;;5029694;28;20305;-69
2021/09/28 03:03:20;;;;;;;5.43;3.73;;;9.70;99.90;;;;;;5029006;28;20206;-69
2021/09/28 03:05:49;;;;;;;3.47;2.80;;;9.70;99.90;;;;;;5030481;28;20303;-70
2021/09/28 03:08:16;;;;;;;4.90;2.57;;;9.70;99.90;;;;;;5031663;28;20210;-69
2021/09/28 03:10:43;;;;;;;3.17;2.07;;;9.60;99.90;;;;;;5029415;28;20209;-69
2021/09/28 03:13:10;;;;;;;4.33;3.40;;;9.60;99.90;;;;;;5029698;28;20249;-69
2021/09/28 03:15:38;;;;;;;4.07;3.20;;;9.60;99.90;;;;;;5029749;28;20220;-70
2021/09/28 03:18:05;;;;;;;5.03;3.07;;;9.50;99.90;;;;;;5034120;28;20574;-69
2021/09/28 03:20:32;;;;;;;3.10;2.80;;;9.50;99.90;;;;;;5035024;28;20222;-69
2021/09/28 03:23:00;;;;;;;2.57;2.37;;;9.50;99.90;;;;;;5029091;28;20277;-69
2021/09/28 03:25:27;;;;;;;3.13;2.63;;;9.50;99.90;;;;;;5034396;28;20210;-70
2021/09/28 03:27:54;;;;;;;3.43;2.40;;;9.50;99.90;;;;;;5034127;28;20234;-69
2021/09/28 03:30:21;;;;;;;3.60;2.50;;;9.50;99.90;;;;;;5031740;28;20198;-70
2021/09/28 03:32:48;;;;;;;6.27;3.00;;;9.50;99.90;;;;;;5027211;28;20214;-69
2021/09/28 03:35:14;;;;;;;4.17;2.07;;;9.50;99.90;;;;;;5033796;28;20203;-68
2021/09/28 03:37:43;;;;;;;3.67;2.43;;;9.50;99.90;;;;;;5028291;28;20309;-69
2021/09/28 03:40:14;;;;;;;4.07;2.30;;;9.40;99.90;;;;;;5031717;28;20226;-68
2021/09/28 03:42:41;;;;;;;3.43;2.50;;;9.40;99.90;;;;;;5033507;28;20203;-68
2021/09/28 03:45:09;;;;;;;3.50;2.23;;;9.50;99.90;;;;;;5032749;28;20210;-69
2021/09/28 03:47:36;;;;;;;4.93;2.23;;;9.50;99.90;;;;;;5030687;28;20674;-69
2021/09/28 03:50:03;;;;;;;2.30;2.10;;;9.50;99.90;;;;;;5034324;28;20206;-69
2021/09/28 03:52:30;;;;;;;3.90;2.07;;;9.40;99.90;;;;;;5034116;28;20202;-68
2021/09/28 03:54:56;;;;;;;3.00;1.90;;;9.40;99.90;;;;;;5033956;28;20214;-70
2021/09/28 03:57:25;;;;;;;2.67;2.37;;;9.40;99.90;;;;;;5031993;28;20202;-68
2021/09/28 03:59:53;;;;;;;2.53;1.80;;;9.40;99.90;;;;;;5030737;28;20687;-69
2021/09/28 04:02:20;;;;;;;5.80;1.90;;;9.30;99.90;;;;;;5031853;28;20233;-69
2021/09/28 04:04:46;;;;;;;2.40;2.20;;;9.30;99.90;;;;;;5033699;28;20293;-70
2021/09/28 04:07:13;;;;;;;3.00;2.00;;;9.40;99.90;;;;;;5034095;28;20256;-69
2021/09/28 04:09:40;;;;;;;2.70;2.30;;;9.30;99.90;;;;;;5033838;28;20650;-70
2021/09/28 04:12:08;;;;;;;2.73;2.00;;;9.30;99.90;;;;;;5025568;28;20215;-68
2021/09/28 04:14:37;;;;;;;2.33;2.13;;;9.30;99.90;;;;;;5034655;28;20246;-69
2021/09/28 04:17:04;;;;;;;4.77;2.17;;;9.30;99.90;;;;;;5032945;28;20202;-70
2021/09/28 04:19:31;;;;;;;3.67;2.00;;;9.30;99.90;;;;;;5032405;28;20288;-69
2021/09/28 04:21:58;;;;;;;2.10;1.93;;;9.30;99.90;;;;;;5021117;28;20658;-69
2021/09/28 04:24:24;;;;;;;2.43;2.10;;;9.30;99.90;;;;;;5033386;28;20218;-68
2021/09/28 04:26:51;;;;;;;5.83;2.13;;;9.30;99.90;;;;;;5032462;28;20217;-70
2021/09/28 04:29:18;;;;;;;4.27;2.37;;;9.40;99.90;;;;;;5019568;28;20235;-69
2021/09/28 04:31:46;;;;;;;5.63;2.10;;;9.30;99.90;;;;;;5031636;28;20222;-68
2021/09/28 04:34:13;;;;;;;3.80;2.30;;;9.30;99.90;;;;;;5031421;28;20211;-68
2021/09/28 04:36:40;;;;;;;3.53;2.23;;;9.30;99.90;;;;;;5026268;28;20235;-69
2021/09/28 04:39:07;;;;;;;2.27;2.07;;;9.20;99.90;;;;;;5029259;28;20682;-70
2021/09/28 04:41:34;;;;;;;3.00;2.23;;;9.20;99.90;;;;;;5030716;28;20229;-69
2021/09/28 04:44:01;;;;;;;3.13;2.00;;;9.20;99.90;;;;;;5032911;28;20214;-70
2021/09/28 04:46:28;;;;;;;2.10;1.90;;;9.20;99.90;;;;;;5029998;28;20215;-69
2021/09/28 04:48:56;;;;;;;4.87;2.17;;;9.30;99.90;;;;;;5033211;28;20219;-70
2021/09/28 04:51:23;;;;;;;2.03;1.93;;;9.30;99.90;;;;;;5033089;28;20208;-69
2021/09/28 04:53:49;;;;;;;3.63;2.20;;;9.40;99.90;;;;;;5032898;28;20203;-70
2021/09/28 04:56:16;;;;;;;2.93;2.00;;;9.40;99.90;;;;;;5033866;28;20269;-71
2021/09/28 04:58:43;;;;;;;2.70;1.97;;;9.50;99.90;;;;;;5032953;28;20214;-70
2021/09/28 05:01:10;;;;;;;3.53;2.30;;;9.50;99.90;;;;;;5028712;28;20693;-69
2021/09/28 05:03:37;;;;;;;4.97;3.00;;;9.60;99.90;;;;;;5032721;28;20244;-71
2021/09/28 05:06:05;;;;;;;2.27;2.07;;;9.60;99.90;;;;;;5032067;28;20226;-71
2021/09/28 05:08:32;;;;;;;3.57;2.00;;;9.50;99.90;;;;;;5032702;28;20213;-69
2021/09/28 05:11:00;;;;;;;4.87;2.40;;;9.60;99.90;;;;;;5031844;28;20266;-68
2021/09/28 05:13:27;;;;;;;2.63;2.37;;;9.60;99.90;;;;;;5024675;28;20198;-68
2021/09/28 05:15:54;;;;;;;4.00;2.13;;;9.60;99.90;;;;;;5028522;28;20301;-67
2021/09/28 05:18:20;;;;;;;4.30;2.40;;;9.60;99.90;;;;;;5029625;28;20667;-69
2021/09/28 05:20:47;;;;;;;3.07;2.20;;;9.60;99.90;;;;;;5032573;28;20238;-70
2021/09/28 05:23:15;;;;;;;3.17;2.37;;;9.70;99.90;;;;;;5031538;28;20716;-69
2021/09/28 05:25:42;;;;;;;4.03;2.13;;;9.80;99.90;;;;;;5032107;28;20548;-69
2021/09/28 05:28:09;;;;;;;2.70;2.23;;;9.70;99.90;;;;;;5032310;28;20241;-70
2021/09/28 05:30:36;;;;;;;2.27;2.07;;;9.80;99.90;;;;;;5031933;28;20203;-71
2021/09/28 05:33:03;;;;;;;3.60;2.20;;;9.80;99.90;;;;;;5032791;28;20220;-70
2021/09/28 05:35:30;;;;;;;2.67;2.10;;;9.80;99.90;;;;;;5034037;28;20218;-70
2021/09/28 05:37:57;;;;;;;3.53;2.30;;;9.80;99.90;;;;;;5039816;28;20207;-75
2021/09/28 05:40:25;;;;;;;4.10;2.27;;;9.90;99.90;;;;;;5034650;28;20237;-75
2021/09/28 05:42:52;;;;;;;5.10;2.60;;;9.90;99.90;;;;;;5031278;28;20610;-75
2021/09/28 05:45:19;;;;;;;3.17;2.50;;;9.90;99.90;;;;;;5035874;28;20209;-72
2021/09/28 05:47:48;;;;;;;2.27;2.00;;;10.00;99.90;;;;;;5022840;28;20727;-75
2021/09/28 05:50:15;;;;;;;4.50;2.10;;;10.00;99.90;;;;;;5032995;28;20222;-73
2021/09/28 05:52:43;;;;;;;3.73;2.57;;;10.10;99.90;;;;;;5032817;28;20214;-72
2021/09/28 05:55:11;;;;;;;3.20;2.17;;;10.20;99.90;;;;;;5030846;28;20238;-72
2021/09/28 05:57:41;;;;;;;3.03;2.23;;;10.20;99.90;;;;;;5018819;28;20211;-73
2021/09/28 06:00:11;;;;;;;3.53;2.00;;;10.30;99.90;;;;;;5031853;28;20218;-72
2021/09/28 06:02:38;;;;;;;3.50;2.27;;;10.30;99.90;;;;;;5032247;28;20215;-72
2021/09/28 06:05:06;;;;;;;3.97;1.97;;;10.40;99.90;;;;;;5031714;28;20207;-71
2021/09/28 06:07:33;;;;;;;4.37;2.17;;;10.40;99.90;;;;;;5035595;28;20993;-71
2021/09/28 06:09:59;;;;;;;3.07;2.60;;;10.40;99.90;;;;;;5030117;28;20322;-73
2021/09/28 06:12:26;;;;;;;6.53;2.20;;;10.40;99.90;;;;;;5029637;28;20202;-72
2021/09/28 06:14:55;;;;;;;4.97;1.90;;;10.50;99.90;;;;;;5045130;28;20290;-72
2021/09/28 06:17:22;;;;;;;3.60;2.07;;;10.50;99.90;;;;;;5033511;28;20222;-73
2021/09/28 06:19:48;;;;;;;4.03;2.10;;;10.50;99.90;;;;;;5047133;28;20215;-73
2021/09/28 06:22:15;;;;;;;4.23;2.47;;;10.60;99.90;;;;;;5028917;28;20208;-72
2021/09/28 06:24:42;;;;;;;4.03;2.10;;;10.70;99.90;;;;;;5031959;28;20257;-72
2021/09/28 06:27:10;;;;;;;5.17;2.30;;;10.70;99.90;;;;;;5037940;28;20273;-72
2021/09/28 06:29:37;;;;;;;2.17;1.83;;;10.80;99.90;;;;;;5033290;28;20246;-72
2021/09/28 06:32:06;;;;;;;2.30;1.83;;;10.90;99.90;;;;;;5032398;28;20618;-72
2021/09/28 06:34:33;;;;;;;3.00;2.37;;;11.00;99.90;;;;;;5031153;28;20298;-74
2021/09/28 06:37:00;;;;;;;4.03;2.00;;;11.10;99.90;;;;;;5038996;28;20318;-72
2021/09/28 06:39:27;;;;;;;2.47;2.20;;;11.20;99.90;;;;;;5030653;28;20228;-74
2021/09/28 06:41:54;;;;;;;4.23;2.23;;;11.30;99.90;;;;;;5030921;28;20312;-72
2021/09/28 06:44:20;;;;;;;2.97;2.00;;;11.40;99.90;;;;;;5026320;28;20639;-73
2021/09/28 06:46:47;;;;;;;2.40;2.13;;;11.50;99.90;;;;;;5026401;28;20260;-71
2021/09/28 06:49:16;;;;;;;4.40;1.93;;;11.60;99.90;;;;;;5030474;28;20300;-71
2021/09/28 06:51:43;;;;;;;3.53;1.83;;;11.70;99.90;;;;;;5024752;28;20207;-71
2021/09/28 06:54:10;;;;;;;2.87;2.00;;;11.80;99.90;;;;;;5020044;28;20217;-72
2021/09/28 06:56:37;;;;;;;2.90;1.97;;;11.80;99.90;;;;;;5032104;28;20223;-71
2021/09/28 06:59:10;;;;;;;4.27;1.90;;;11.90;99.90;;;;;;5029794;28;20280;-72
2021/09/28 07:01:37;;;;;;;4.57;1.70;;;12.00;99.90;;;;;;5031922;28;20234;-71
2021/09/28 07:04:04;;;;;;;2.60;2.10;;;12.00;99.90;;;;;;5030278;28;20210;-70
2021/09/28 07:06:33;;;;;;;4.20;1.80;;;12.10;99.90;;;;;;5027003;28;20214;-72
2021/09/28 07:09:00;;;;;;;3.13;1.90;;;12.20;99.90;;;;;;5031355;28;20285;-70
2021/09/28 07:11:27;;;;;;;2.97;1.80;;;12.30;99.90;;;;;;5032002;28;20293;-71
2021/09/28 07:13:54;;;;;;;3.47;2.30;;;12.50;99.90;;;;;;5027884;28;20697;-71
2021/09/28 07:16:21;;;;;;;3.67;2.13;;;12.60;99.90;;;;;;5041435;28;20374;-72
2021/09/28 07:18:49;;;;;;;1.83;1.60;;;12.80;99.90;;;;;;5035074;28;20667;-74
2021/09/28 07:21:16;;;;;;;3.33;1.67;;;13.00;99.90;;;;;;5030380;28;20305;-72
2021/09/28 07:23:44;;;;;;;4.10;1.70;;;13.20;99.90;;;;;;5029621;28;20245;-73
2021/09/28 07:26:11;;;;;;;2.10;1.80;;;13.20;99.90;;;;;;5030963;28;20298;-72
2021/09/28 07:28:39;;;;;;;4.80;1.57;;;13.40;99.90;;;;;;5025730;28;20235;-71
2021/09/28 07:31:06;;;;;;;2.50;1.90;;;13.50;99.90;;;;;;5027438;28;20206;-72
2021/09/28 07:33:33;;;;;;;3.10;2.00;;;13.70;99.90;;;;;;5030268;28;20571;-72
2021/09/28 07:36:02;;;;;;;3.93;1.87;;;13.80;99.90;;;;;;5031348;28;20241;-72
2021/09/28 07:38:29;;;;;;;2.90;1.70;;;13.90;99.90;;;;;;5032259;28;20294;-72
2021/09/28 07:40:57;;;;;;;2.10;1.90;;;14.00;99.90;;;;;;5032125;28;20575;-70
2021/09/28 07:43:24;;;;;;;1.67;1.50;;;14.30;99.90;;;;;;5032944;28;20242;-72
2021/09/28 07:45:51;;;;;;;4.00;1.80;;;14.40;99.90;;;;;;5033039;28;20223;-73
2021/09/28 07:48:18;;;;;;;2.93;1.90;;;14.60;99.90;;;;;;5033538;28;20253;-73
2021/09/28 07:50:46;;;;;;;3.60;2.43;;;14.70;99.90;;;;;;5034377;28;20209;-73
2021/09/28 07:53:13;;;;;;;2.50;2.13;;;14.90;99.90;;;;;;5033171;28;20221;-72
2021/09/28 07:55:39;;;;;;;3.43;1.80;;;15.10;99.90;;;;;;5031096;28;20203;-73
2021/09/28 07:58:08;;;;;;;8.33;2.37;;;15.30;99.90;;;;;;5019419;28;20209;-72
2021/09/28 08:00:35;;;;;;;3.43;2.20;;;15.40;99.90;;;;;;5032378;28;20221;-73
2021/09/28 08:03:03;;;;;;;3.57;1.43;;;15.40;99.90;;;;;;5043544;28;20723;-74
2021/09/28 08:05:29;;;;;;;2.30;1.57;;;15.50;99.90;;;;;;5034303;28;20748;-72
2021/09/28 08:07:56;;;;;;;3.13;1.70;;;15.60;99.90;;;;;;5037683;28;20754;-73
2021/09/28 08:10:24;;;;;;;1.80;1.50;;;15.70;99.90;;;;;;5044746;28;20309;-73
2021/09/28 08:12:51;;;;;;;3.00;1.57;;;15.80;99.90;;;;;;5035069;28;20302;-72
2021/09/28 08:15:19;;;;;;;1.80;1.70;;;15.90;99.90;;;;;;5035592;28;20230;-71
2021/09/28 08:17:46;;;;;;;4.40;2.03;;;16.10;99.40;;;;;;5035757;28;20626;-73
2021/09/28 08:20:16;;;;;;;3.07;2.17;;;16.20;99.00;;;;;;5035150;28;20214;-73
2021/09/28 08:22:43;;;;;;;2.07;1.50;;;16.40;98.80;;;;;;5035169;28;20225;-71
2021/09/28 08:25:16;;;;;;;1.77;1.63;;;16.50;98.40;;;;;;5042221;28;20203;-71
2021/09/28 08:30:29;;;;;;;2.53;1.57;;;16.80;97.20;;;;;;5046128;28;20714;-73
2021/09/28 08:32:56;;;;;;;4.57;1.90;;;16.90;96.60;;;;;;5035350;28;20723;-73
2021/09/28 08:35:23;;;;;;;4.00;1.57;;;17.10;96.20;;;;;;5047185;28;20207;-74
2021/09/28 08:37:50;;;;;;;1.43;1.30;;;17.30;95.60;;;;;;5034671;28;20215;-73
2021/09/28 08:40:19;;;;;;;2.73;1.20;;;17.50;95.20;;;;;;5046542;28;20298;-74
2021/09/28 08:42:46;;;;;;;2.40;1.53;;;17.60;94.20;;;;;;5035541;28;20300;-74
2021/09/28 08:45:13;;;;;;;2.53;1.47;;;17.80;93.60;;;;;;5034930;28;20230;-73
2021/09/28 08:47:42;;;;;;;3.97;1.60;;;17.90;92.90;;;;;;5044257;28;20217;-74
2021/09/28 08:50:14;;;;;;;1.20;1.00;;;18.00;92.20;;;;;;5038983;28;20795;-73
2021/09/28 08:52:42;;;;;;;1.73;1.30;;;18.10;91.70;;;;;;5032880;28;20207;-74
2021/09/28 08:55:09;;;;;;;2.95;1.75;;;18.10;91.30;;;;;;5034937;28;20731;-73
2021/09/28 08:57:36;;;;;;;1.85;1.52;;;18.20;90.90;;;;;;5034672;28;20203;-71
2021/09/28 09:00:20;;;;;;;3.70;1.58;;;18.30;91.60;;;;;;5034401;28;20241;-72
2021/09/28 09:02:49;;;;;;;2.40;1.58;;;18.60;90.70;;;;;;5034489;28;20213;-72
2021/09/28 09:05:17;;;;;;;2.17;1.42;;;20.10;90.30;;;;;;5034886;28;20710;-74
2021/09/28 09:07:47;;;;;;;2.53;1.48;;;22.70;81.20;;;;;;5034620;28;20656;-72
2021/09/28 09:10:27;;;;;;;2.10;1.33;;;25.10;66.00;;;;;;5038221;28;20728;-72
2021/09/28 09:12:54;;;;;;;4.50;1.70;;;27.50;57.70;;;;;;5032384;28;20196;-72
2021/09/28 09:15:23;;;;;;;1.20;1.10;;;29.00;50.90;;;;;;5051342;28;20216;-72
2021/09/28 09:17:53;;;;;;;2.55;1.23;;;30.10;47.50;;;;;;5041218;28;20202;-74
2021/09/28 09:20:27;;;;;;;1.92;1.15;;;31.40;44.90;;;;;;5051952;28;20263;-71
2021/09/28 09:22:54;;;;;;;3.17;1.20;;;32.20;42.00;;;;;;5047311;28;20242;-71
2021/09/28 09:25:22;;;;;;;1.23;1.13;;;32.50;40.70;;;;;;5050287;28;20198;-73
2021/09/28 09:27:50;;;;;;;3.92;1.30;;;32.70;40.20;;;;;;5051708;28;20261;-72
2021/09/28 09:30:20;;;;;;;1.30;1.20;;;33.10;39.00;;;;;;5041750;28;20202;-72
2021/09/28 09:32:49;;;;;;;1.48;1.08;;;33.50;37.80;;;;;;5050029;28;20206;-72
2021/09/28 09:35:26;;;;;;;3.80;1.02;;;33.50;37.20;;;;;;5050691;28;20206;-72
2021/09/28 09:38:06;;;;;;;1.45;1.35;;;33.30;37.00;;;;;;5047268;28;20201;-73
2021/09/28 09:40:35;;;;;;;1.42;1.33;;;33.30;36.70;;;;;;5043399;28;20200;-72
2021/09/28 09:43:03;;;;;;;1.10;1.00;;;33.20;36.30;;;;;;5041917;28;20592;-71
2021/09/28 09:45:30;;;;;;;2.17;1.52;;;33.20;36.60;;;;;;5042891;28;20230;-72
2021/09/28 09:47:57;;;;;;;2.13;1.20;;;33.00;36.30;;;;;;5040954;28;20216;-71
2021/09/28 09:50:26;;;;;;;1.90;1.05;;;33.10;36.00;;;;;;5044174;28;20199;-72
2021/09/28 09:53:07;;;;;;;0.95;0.90;;;32.80;35.60;;;;;;5044222;28;20653;-71
2021/09/28 09:55:38;;;;;;;1.52;1.23;;;32.10;35.90;;;;;;5043897;28;20201;-71
2021/09/28 09:58:08;;;;;;;2.03;1.17;;;31.90;36.70;;;;;;5045249;28;20651;-71
2021/09/28 10:00:37;;;;;;;1.30;1.20;;;31.80;36.80;;;;;;5046388;28;20611;-70
2021/09/28 10:03:06;;;;;;;1.98;1.38;;;32.10;36.60;;;;;;5046700;28;20228;-70
2021/09/28 10:05:35;;;;;;;1.05;0.95;;;32.20;36.00;;;;;;5045403;28;20261;-70
2021/09/28 10:08:08;;;;;;;5.15;1.13;;;32.00;35.90;;;;;;5037793;28;20214;-70
2021/09/28 10:10:36;;;;;;;3.50;1.20;;;31.70;36.30;;;;;;5043839;28;20202;-72
2021/09/28 10:13:05;;;;;;;5.90;0.90;;;31.60;35.80;;;;;;5045454;28;20206;-73
2021/09/28 10:15:32;;;;;;;1.65;1.30;;;31.60;36.70;;;;;;5046859;28;20300;-72
2021/09/28 10:17:59;;;;;;;1.85;1.15;;;31.90;36.20;;;;;;5048270;28;20234;-72
2021/09/28 10:20:31;;;;;;;2.88;1.10;;;32.50;35.80;;;;;;5047687;28;20208;-73
2021/09/28 10:23:01;;;;;;;4.82;1.25;;;32.60;35.30;;;;;;5048683;28;20229;-71
2021/09/28 10:25:39;;;;;;;1.42;1.00;;;32.90;35.20;;;;;;5048429;28;20202;-70
2021/09/28 10:28:29;;;;;;;2.58;1.20;;;33.50;34.40;;;;;;5046859;28;20611;-74
2021/09/28 10:30:56;;;;;;;5.00;1.30;;;34.00;33.90;;;;;;5025139;28;20199;-74
2021/09/28 10:33:29;;;;;;;1.88;1.27;;;34.10;33.50;;;;;;5032433;28;20213;-73
2021/09/28 10:35:58;;;;;;;1.85;1.42;;;34.20;33.00;;;;;;5032089;28;20226;-71
2021/09/28 10:39:02;;;;;;;4.13;1.40;;;33.80;33.10;;;;;;5031014;28;20217;-73
2021/09/28 10:41:49;;;;;;;1.33;1.13;;;33.50;33.50;;;;;;5032218;28;20228;-72
2021/09/28 10:44:47;;;;;;;2.38;1.30;;;34.00;33.50;;;;;;5024597;28;20672;-73
2021/09/28 10:47:52;;;;;;;1.05;0.95;;;34.30;32.40;;;;;;5032247;28;20203;-74
2021/09/28 10:50:34;;;;;;;1.27;1.10;;;34.00;32.40;;;;;;5032144;28;20290;-73
2021/09/28 10:53:04;;;;;;;1.65;1.10;;;34.40;33.00;;;;;;5032788;28;20296;-73
2021/09/28 10:55:39;;;;;;;2.90;1.10;;;35.60;32.40;;;;;;5018168;28;20305;-74
2021/09/28 10:58:23;;;;;;;1.23;0.88;;;36.40;30.90;;;;;;5019703;28;20260;-73
2021/09/28 11:01:13;;;;;;;2.15;1.00;;;36.40;30.30;;;;;;5029952;28;20211;-73
2021/09/28 11:03:48;;;;;;;3.42;1.42;;;35.70;31.00;;;;;;5031831;28;20281;-71
2021/09/28 11:06:16;;;;;;;1.77;1.08;;;35.50;31.30;;;;;;5031533;28;20194;-71
2021/09/28 11:08:43;;;;;;;1.42;1.33;;;35.10;32.10;;;;;;5043453;28;20271;-70
2021/09/28 11:11:12;;;;;;;2.45;1.48;;;35.10;31.60;;;;;;5033780;28;20217;-70
2021/09/28 11:13:43;;;;;;;3.53;1.48;;;34.70;31.70;;;;;;5031061;28;20210;-69
2021/09/28 11:16:12;;;;;;;1.70;1.40;;;33.50;32.00;;;;;;5029507;28;20551;-71
2021/09/28 11:18:54;;;;;;;1.13;0.90;;;32.10;34.40;;;;;;5042262;28;20220;-70
2021/09/28 11:21:21;;;;;;;2.78;1.20;;;30.70;35.10;;;;;;5042789;28;20650;-69
2021/09/28 11:23:51;;;;;;;1.30;1.08;;;29.50;36.50;;;;;;5042813;28;20586;-71
2021/09/28 11:26:18;;;;;;;2.55;1.30;;;28.10;38.10;;;;;;5034853;28;20288;-72
2021/09/28 11:28:50;;;;;;;1.80;1.27;;;27.10;40.10;;;;;;5042391;28;20238;-71
2021/09/28 11:31:17;;;;;;;4.25;1.73;;;26.60;41.30;;;;;;5031584;28;20206;-73
2021/09/28 11:33:47;;;;;;;1.23;1.23;;;26.30;41.80;;;;;;5031176;28;20671;-73
2021/09/28 11:36:15;;;;;;;5.78;1.30;;;25.80;42.50;;;;;;5039309;28;20228;-73
2021/09/28 11:38:43;;;;;;;2.15;1.15;;;25.10;43.30;;;;;;5036740;28;20203;-71
2021/09/28 11:41:13;;;;;;;2.53;1.75;;;24.50;44.60;;;;;;5045738;28;20216;-73
2021/09/28 11:43:42;;;;;;;3.33;1.50;;;24.10;45.20;;;;;;5040412;28;20744;-71
2021/09/28 11:46:16;;;;;;;6.30;1.83;;;23.80;46.00;;;;;;5040436;28;20290;-72
2021/09/28 11:48:46;;;;;;;3.83;1.55;;;23.40;46.70;;;;;;5032091;28;20285;-72
2021/09/28 11:51:14;;;;;;;2.40;1.80;;;23.10;47.30;;;;;;5030870;28;20202;-72
2021/09/28 11:53:44;;;;;;;3.25;1.58;;;22.70;47.90;;;;;;5035150;28;20233;-72
2021/09/28 11:56:15;;;;;;;1.30;1.20;;;22.60;48.50;;;;;;5035241;28;20210;-74
2021/09/28 11:58:43;;;;;;;1.25;1.15;;;22.60;48.40;;;;;;5035489;28;20211;-72
2021/09/28 12:01:12;;;;;;;1.92;1.58;;;22.70;49.10;;;;;;5036558;28;20564;-72
2021/09/28 12:04:20;;;;;;;1.48;1.38;;;23.10;48.70;;;;;;5036285;28;20231;-73
2021/09/28 12:07:02;;;;;;;2.78;1.45;;;23.80;48.30;;;;;;5026178;28;20207;-74
2021/09/28 12:09:51;;;;;;;1.52;1.40;;;24.70;46.10;;;;;;5030751;28;20213;-73
2021/09/28 12:12:19;;;;;;;1.80;1.65;;;24.90;45.90;;;;;;5034772;28;20260;-71
2021/09/28 12:14:48;;;;;;;1.95;1.55;;;24.80;45.90;;;;;;5034502;28;20210;-71
2021/09/28 12:17:19;;;;;;;1.38;1.23;;;24.60;45.60;;;;;;5033875;28;20206;-72
2021/09/28 12:19:47;;;;;;;1.65;1.42;;;24.60;46.50;;;;;;5034048;28;20199;-72
2021/09/28 12:22:25;;;;;;;3.28;2.30;;;25.00;46.40;;;;;;5034614;28;20222;-73
2021/09/28 12:24:54;;;;;;;1.65;1.55;;;25.60;45.90;;;;;;5034296;28;20205;-73
2021/09/28 12:27:21;;;;;;;1.92;1.42;;;26.10;44.30;;;;;;5035516;28;20211;-70
2021/09/28 12:29:50;;;;;;;1.90;1.52;;;26.60;44.10;;;;;;5033536;28;20234;-72
2021/09/28 12:32:24;;;;;;;1.70;1.60;;;26.60;43.70;;;;;;5035235;28;20217;-72
2021/09/28 12:34:54;;;;;;;2.35;1.35;;;26.40;42.90;;;;;;5020839;28;20235;-72
2021/09/28 12:37:21;;;;;;;2.75;1.63;;;25.70;44.40;;;;;;5033721;28;20227;-70
2021/09/28 12:40:03;;;;;;;3.67;1.50;;;25.40;45.20;;;;;;5034415;28;20716;-70
2021/09/28 12:42:31;;;;;;;3.63;1.42;;;25.00;45.60;;;;;;5034731;28;20218;-71
2021/09/28 12:45:00;;;;;;;1.70;1.50;;;24.60;46.70;;;;;;5020269;28;20245;-70
2021/09/28 12:47:34;;;;;;;2.83;1.42;;;24.30;46.10;;;;;;5026447;28;20207;-71
2021/09/28 12:50:26;;;;;;;4.15;1.63;;;23.60;46.70;;;;;;5029394;28;20237;-71
2021/09/28 12:52:56;;;;;;;2.83;1.50;;;23.10;47.80;;;;;;5020158;28;20209;-70
2021/09/28 12:55:23;;;;;;;3.78;1.95;;;22.60;48.00;;;;;;5033497;28;20211;-71
2021/09/28 12:57:51;;;;;;;7.38;1.85;;;22.20;49.30;;;;;;5033344;28;20203;-71
2021/09/28 13:00:18;;;;;;;8.65;2.63;;;22.00;50.20;;;;;;5033685;28;20233;-70
2021/09/28 13:02:48;;;;;;;2.20;1.73;;;22.00;50.50;;;;;;5033770;28;20258;-72